Time;durP1;ratioP1;P1;durP2;ratioP2;P2;SDS_P1;SDS_P2;PMS_P1;PMS_P2;Temp;Humidity;BMP_temperature;BMP_pressure;BME280_temperature;BME280_humidity;BME280_pressure;Samples;Min_cycle;Max_cycle;Signal;HPM_P1;HPM_P2
2022/08/20 00:01:15;;;;;;;9.10;6.90;;;;;;;23.19;66.02;99184.83;431508;1271;146920;-60
2022/08/20 00:11:25;;;;;;;8.50;7.60;;;;;;;23.11;66.40;99243.98;430255;1271;141570;-61
2022/08/20 00:21:34;;;;;;;9.70;7.60;;;;;;;22.92;66.91;99244.57;431302;1271;142216;-60
2022/08/20 00:31:40;;;;;;;11.20;8.40;;;;;;;22.67;67.88;99232.80;431418;1271;165545;-62
2022/08/20 00:41:46;;;;;;;12.60;9.30;;;;;;;22.43;69.48;99203.38;431153;1271;142259;-61
2022/08/20 00:51:57;;;;;;;13.50;9.50;;;;;;;22.15;70.96;99142.02;431397;1271;143779;-60
2022/08/20 01:02:07;;;;;;;11.10;9.70;;;;;;;21.93;72.48;99208.79;430829;1271;147468;-60
2022/08/20 01:12:14;;;;;;;18.30;9.80;;;;;;;21.76;73.90;99190.57;430935;1272;143177;-61
2022/08/20 01:33:02;;;;;;;14.10;10.70;;;;;;;21.52;75.95;99135.45;430956;1270;143577;-62
2022/08/20 01:43:08;;;;;;;12.70;11.40;;;;;;;21.41;77.07;99092.26;431412;1271;142625;-61
2022/08/20 01:53:20;;;;;;;14.80;12.10;;;;;;;21.35;77.47;99077.30;430081;1271;142666;-60
2022/08/20 02:03:26;;;;;;;13.80;11.50;;;;;;;21.34;78.33;99067.83;431515;1271;146027;-60
2022/08/20 02:13:32;;;;;;;17.30;12.60;;;;;;;21.27;78.83;99040.09;431086;1271;146249;-60
2022/08/20 02:23:38;;;;;;;16.20;14.60;;;;;;;21.21;79.61;99029.10;431069;1271;146620;-61
2022/08/20 02:33:44;;;;;;;17.30;14.10;;;;;;;21.14;80.28;99037.04;430852;1271;142980;-61
2022/08/20 02:44:11;;;;;;;17.10;13.50;;;;;;;21.07;80.58;99022.52;440763;1271;146448;-61
2022/08/20 02:54:17;;;;;;;16.40;14.10;;;;;;;21.03;80.76;99034.98;447607;1271;145184;-61
2022/08/20 03:04:23;;;;;;;18.50;13.00;;;;;;;21.06;81.17;99026.77;435547;1271;143690;-59
2022/08/20 03:14:30;;;;;;;13.00;11.50;;;;;;;20.99;81.41;99015.79;429746;1270;143281;-62
2022/08/20 03:24:36;;;;;;;16.10;12.90;;;;;;;20.91;81.76;99024.43;431290;1271;143359;-60
2022/08/20 03:34:42;;;;;;;15.20;13.00;;;;;;;20.89;82.12;99018.22;430209;1271;152710;-60
2022/08/20 03:44:48;;;;;;;17.00;12.80;;;;;;;20.88;82.39;99030.41;431701;1271;143412;-61
2022/08/20 03:55:05;;;;;;;16.10;14.60;;;;;;;20.73;82.48;99036.08;430947;1271;146689;-60
2022/08/20 04:05:11;;;;;;;19.40;16.70;;;;;;;20.66;82.75;99030.02;431795;1271;143672;-60
2022/08/20 04:15:18;;;;;;;17.90;13.50;;;;;;;20.70;83.11;99039.17;431746;1271;142395;-61
2022/08/20 04:25:26;;;;;;;16.10;13.10;;;;;;;20.74;83.14;99043.70;431469;1271;142108;-62
2022/08/20 04:35:32;;;;;;;16.10;14.40;;;;;;;20.80;83.28;99050.04;429783;1271;142298;-60
2022/08/20 04:45:39;;;;;;;15.60;13.80;;;;;;;20.81;83.36;99054.14;431865;1271;144467;-61
2022/08/20 04:55:46;;;;;;;16.40;14.80;;;;;;;20.86;83.50;99061.42;429671;1271;142832;-61
2022/08/20 05:05:52;;;;;;;18.50;16.50;;;;;;;20.91;83.58;99062.95;431666;1271;141952;-61
2022/08/20 05:16:03;;;;;;;17.50;15.70;;;;;;;21.03;83.75;99062.52;430689;1271;146154;-60
2022/08/20 05:26:10;;;;;;;16.70;15.10;;;;;;;21.15;83.68;99068.60;430846;1271;148460;-62
2022/08/20 05:36:16;;;;;;;17.70;15.50;;;;;;;21.32;83.51;99063.61;431136;1271;142591;-60
2022/08/20 05:46:22;;;;;;;16.80;15.00;;;;;;;21.58;82.92;99043.63;430178;1271;142458;-61
2022/08/20 05:56:30;;;;;;;16.50;14.10;;;;;;;22.09;82.26;99033.73;429665;1271;141972;-57
2022/08/20 06:06:36;;;;;;;15.50;12.80;;;;;;;22.92;80.57;99026.00;430099;1271;142358;-59
2022/08/20 06:16:51;;;;;;;12.90;10.40;;;;;;;24.01;78.31;99022.80;430450;1271;146270;-61
2022/08/20 06:27:06;;;;;;;12.50;11.20;;;;;;;25.74;75.60;99024.47;431154;1271;143505;-62
2022/08/20 06:37:18;;;;;;;10.10;9.10;;;;;;;27.38;70.35;99020.93;430204;1271;1300393;-61
2022/08/20 06:47:24;;;;;;;10.40;9.30;;;;;;;27.78;67.36;99026.67;429910;1271;146095;-61
2022/08/20 06:57:29;;;;;;;11.40;8.70;;;;;;;27.47;66.77;99030.05;430260;1271;142668;-60
2022/08/20 07:07:36;;;;;;;15.50;7.90;;;;;;;27.58;65.58;99030.11;431244;1271;142260;-60
2022/08/20 07:17:42;;;;;;;9.00;8.10;;;;;;;27.81;64.95;99034.88;430994;1271;142495;-61
2022/08/20 07:27:49;;;;;;;9.20;7.10;;;;;;;29.50;62.54;99067.50;431133;1271;143030;-62
2022/08/20 07:37:55;;;;;;;13.90;9.00;;;;;;;30.65;60.10;99083.78;430247;1271;143357;-63
2022/08/20 07:48:10;;;;;;;9.60;8.20;;;;;;;30.65;58.93;99085.80;432327;1271;142626;-62
2022/08/20 07:58:20;;;;;;;8.30;7.00;;;;;;;31.33;57.63;99075.98;431840;1271;141646;-64
2022/08/20 08:08:33;;;;;;;9.60;6.60;;;;;;;31.66;55.63;99065.88;430097;1271;141267;-61
2022/08/20 08:18:45;;;;;;;9.60;7.10;;;;;;;31.98;54.41;99067.50;431111;1271;142570;-62
2022/08/20 08:28:51;;;;;;;9.30;7.60;;;;;;;31.21;53.58;99054.43;439302;1271;143030;-60
2022/08/20 08:38:57;;;;;;;12.70;7.00;;;;;;;30.29;54.58;99060.00;430933;1271;141188;-61
2022/08/20 08:49:02;;;;;;;7.70;7.00;;;;;;;29.36;55.01;99051.37;431019;1271;147315;-62
2022/08/20 08:59:09;;;;;;;7.70;6.50;;;;;;;28.84;56.30;99052.80;430373;1271;141527;-61
2022/08/20 09:09:21;;;;;;;8.40;6.60;;;;;;;28.86;56.76;99067.10;431012;1271;141675;-61
2022/08/20 09:19:27;;;;;;;8.60;6.90;;;;;;;29.28;56.61;99072.10;430962;1271;141716;-61
2022/08/20 09:29:33;;;;;;;9.30;6.60;;;;;;;29.88;56.14;99086.02;431857;1271;184568;-60
2022/08/20 09:39:40;;;;;;;10.70;6.50;;;;;;;30.08;55.56;99089.27;432101;1270;141147;-59
2022/08/20 09:49:45;;;;;;;;;;;;;;;29.75;55.40;99109.55;430187;1271;142446;-61
2022/08/20 09:59:56;;;;;;;8.60;6.80;;;;;;;29.03;56.03;99111.95;431594;1271;127319;-60
2022/08/20 10:10:04;;;;;;;12.60;7.70;;;;;;;28.28;57.98;99106.66;431283;1271;142198;-61
2022/08/20 10:20:13;;;;;;;11.10;8.20;;;;;;;27.64;60.11;99088.00;430322;1271;143358;-60
2022/08/20 10:30:19;;;;;;;8.00;5.90;;;;;;;26.78;61.70;99076.66;431227;1271;141747;-61
2022/08/20 10:40:26;;;;;;;8.00;5.50;;;;;;;26.53;62.76;99081.19;431124;1271;142358;-60
2022/08/20 10:50:31;;;;;;;9.50;5.30;;;;;;;26.58;62.75;99086.29;430872;1271;142765;-62
2022/08/20 11:00:38;;;;;;;10.90;6.10;;;;;;;26.70;63.21;99094.51;430506;1271;141845;-61
2022/08/20 11:10:43;;;;;;;6.50;4.00;;;;;;;26.70;63.09;99095.80;429829;1271;142828;-61
2022/08/20 11:20:50;;;;;;;7.20;5.20;;;;;;;26.81;63.04;99086.46;431846;1271;141477;-59
2022/08/20 11:30:56;;;;;;;8.30;5.40;;;;;;;27.13;63.12;99094.32;431868;1271;142248;-59
2022/08/20 11:41:01;;;;;;;8.50;4.60;;;;;;;27.33;62.29;99087.16;429980;1271;142264;-60
2022/08/20 11:51:07;;;;;;;6.70;4.50;;;;;;;27.06;62.05;99078.58;430498;1271;142051;-60
2022/08/20 12:01:13;;;;;;;7.30;4.50;;;;;;;27.07;62.34;99070.91;430535;1270;143028;-61
2022/08/20 12:11:19;;;;;;;11.70;4.90;;;;;;;27.36;61.77;99059.10;430110;1271;187924;-61
2022/08/20 12:21:26;;;;;;;6.80;3.60;;;;;;;27.71;60.20;99055.28;430593;1271;141884;-59
2022/08/20 12:31:37;;;;;;;9.50;3.20;;;;;;;27.77;59.22;99055.42;430259;1271;146910;-61
2022/08/20 12:41:42;;;;;;;3.70;3.30;;;;;;;28.09;58.78;99056.93;430382;1271;142827;-63
2022/08/20 12:51:48;;;;;;;7.10;3.60;;;;;;;28.32;57.44;99050.63;430395;1271;144765;-61
2022/08/20 13:01:56;;;;;;;7.20;4.40;;;;;;;28.14;57.04;99039.10;430256;1271;141247;-62
2022/08/20 13:12:19;;;;;;;5.80;2.50;;;;;;;28.42;56.95;99035.17;430679;1271;142391;-61
2022/08/20 13:22:25;;;;;;;7.40;3.40;;;;;;;28.41;55.50;99026.58;431652;1271;142019;-63
2022/08/20 13:32:31;;;;;;;6.60;2.50;;;;;;;28.15;55.88;99025.49;431342;1271;145003;-62
2022/08/20 13:42:38;;;;;;;6.20;3.10;;;;;;;27.52;55.07;99022.11;431587;1271;142902;-60
2022/08/20 13:52:45;;;;;;;7.50;4.40;;;;;;;27.19;55.01;99022.19;430957;1271;142387;-61
2022/08/20 14:02:53;;;;;;;8.50;2.90;;;;;;;27.33;54.81;99027.73;430842;1271;198097;-61
2022/08/20 14:12:59;;;;;;;12.50;4.00;;;;;;;27.56;54.19;99032.52;431093;1271;140929;-62
2022/08/20 14:23:05;;;;;;;8.10;3.40;;;;;;;27.83;55.72;99042.35;429846;1271;142847;-60
2022/08/20 14:33:11;;;;;;;11.10;3.80;;;;;;;27.99;55.39;99046.64;430826;1271;141902;-61
2022/08/20 14:43:17;;;;;;;6.90;2.90;;;;;;;27.83;53.61;99044.46;430845;1271;142904;-61
2022/08/20 14:53:23;;;;;;;9.40;5.20;;;;;;;27.56;55.70;99042.04;429747;1271;142560;-59
2022/08/20 15:03:29;;;;;;;8.50;3.40;;;;;;;27.31;55.88;99045.42;431722;1271;140379;-61
2022/08/20 15:13:35;;;;;;;9.00;4.20;;;;;;;27.15;55.28;99042.70;430668;1271;141339;-62
2022/08/20 15:23:41;;;;;;;10.50;3.90;;;;;;;26.99;57.92;99038.87;430837;1271;141412;-61
2022/08/20 15:33:47;;;;;;;8.50;3.50;;;;;;;26.87;58.09;99036.79;430865;1271;142551;-60
2022/08/20 15:43:53;;;;;;;6.70;2.70;;;;;;;26.68;57.01;99043.74;430454;1270;199735;-61
2022/08/20 15:54:06;;;;;;;9.80;3.60;;;;;;;26.22;56.18;99028.40;431611;1271;141752;-61
2022/08/20 16:04:31;;;;;;;8.60;4.70;;;;;;;26.05;56.08;99021.70;430467;1272;141855;-60
2022/08/20 16:14:40;;;;;;;9.30;3.60;;;;;;;25.92;56.80;99012.04;429903;1271;144802;-59
2022/08/20 16:24:47;;;;;;;8.50;5.40;;;;;;;25.78;57.06;99007.38;430464;1271;153768;-62
2022/08/20 16:34:59;;;;;;;19.30;12.40;;;;;;;25.55;57.12;99003.77;430069;1271;141888;-60
2022/08/20 16:45:11;;;;;;;9.10;5.80;;;;;;;25.30;57.24;99002.67;431335;1271;146847;-60
2022/08/20 16:55:18;;;;;;;9.00;4.30;;;;;;;25.12;57.24;99015.35;433239;1271;146162;-63
2022/08/20 17:05:26;;;;;;;11.20;5.70;;;;;;;25.03;58.37;99021.68;430988;1271;146536;-60
2022/08/20 17:15:36;;;;;;;12.10;5.70;;;;;;;24.94;59.95;99024.69;431309;1271;142339;-62
2022/08/20 17:25:42;;;;;;;10.70;5.60;;;;;;;24.83;61.32;99022.90;431029;1271;143246;-61
2022/08/20 17:35:54;;;;;;;14.60;5.20;;;;;;;24.69;62.08;99028.73;431835;1271;142596;-61
2022/08/20 17:46:06;;;;;;;13.90;8.00;;;;;;;24.47;63.00;99027.88;431544;1270;142468;-61
2022/08/20 17:56:20;;;;;;;15.60;8.90;;;;;;;24.29;63.50;99030.14;431264;1271;142820;-61
2022/08/20 18:06:33;;;;;;;11.00;9.90;;;;;;;24.23;64.80;99036.89;432826;1271;142805;-59
2022/08/20 18:16:49;;;;;;;11.70;8.60;;;;;;;24.17;65.76;99038.85;432018;1271;145576;-61
2022/08/20 18:27:01;;;;;;;12.50;11.20;;;;;;;24.13;66.78;99048.20;437819;1271;142675;-61
2022/08/20 18:37:26;;;;;;;19.60;14.40;;;;;;;24.08;67.53;99041.86;443206;1271;1565015;-61
2022/08/20 18:47:44;;;;;;;14.80;10.30;;;;;;;24.02;68.55;99034.27;437609;1271;142992;-61
2022/08/20 18:57:57;;;;;;;9.50;8.30;;;;;;;24.01;69.14;99043.91;432931;1271;144232;-60
2022/08/20 19:08:06;;;;;;;13.80;10.40;;;;;;;23.99;69.85;99041.30;430687;1271;142563;-61
2022/08/20 19:18:16;;;;;;;12.90;11.40;;;;;;;23.87;70.31;99036.46;433586;1270;145294;-61
2022/08/20 19:28:28;;;;;;;11.10;10.00;;;;;;;23.62;70.90;99021.08;433226;1270;143420;-60
2022/08/20 19:38:34;;;;;;;14.50;10.10;;;;;;;23.41;71.56;99039.79;433341;1271;147235;-60
2022/08/20 19:48:54;;;;;;;12.90;6.10;;;;;;;22.29;75.87;99104.71;435085;1271;142400;-59
2022/08/20 19:59:05;;;;;;;10.60;7.50;;;;;;;20.85;76.23;99072.84;446610;1271;142183;-61
2022/08/20 20:09:20;;;;;;;12.10;6.60;;;;;;;20.34;77.59;99049.34;437185;1271;141476;-60
2022/08/20 20:19:27;;;;;;;10.90;7.80;;;;;;;20.23;77.74;99060.02;432154;1271;144159;-60
2022/08/20 20:29:37;;;;;;;11.40;7.10;;;;;;;20.21;78.36;99069.45;431558;1271;143070;-62
2022/08/20 20:39:45;;;;;;;11.20;8.40;;;;;;;20.20;79.10;99062.67;438668;1271;142162;-61
2022/08/20 20:49:55;;;;;;;15.00;8.90;;;;;;;20.25;79.99;99087.30;430346;1271;147795;-60
2022/08/20 21:00:01;;;;;;;11.80;10.00;;;;;;;20.30;80.62;99074.31;430872;1270;141892;-61
2022/08/20 21:10:09;;;;;;;12.40;10.00;;;;;;;20.29;81.29;99037.25;431871;1271;142760;-60
2022/08/20 21:20:15;;;;;;;13.60;12.00;;;;;;;20.28;81.84;99021.60;431591;1271;145522;-60
2022/08/20 21:30:25;;;;;;;15.20;12.40;;;;;;;20.33;82.31;99028.55;439929;1271;142933;-61
2022/08/20 21:40:31;;;;;;;14.10;12.50;;;;;;;20.34;82.60;99040.09;432211;1271;143174;-61
2022/08/20 21:50:42;;;;;;;19.40;13.30;;;;;;;20.34;83.23;99052.06;432418;1271;145966;-60
2022/08/20 22:00:59;;;;;;;14.50;11.00;;;;;;;20.33;83.48;99057.27;431946;1271;142808;-59
2022/08/20 22:11:07;;;;;;;10.50;9.40;;;;;;;20.35;83.60;99064.49;430778;1271;142752;-60
2022/08/20 22:21:15;;;;;;;;;;;;;;;20.38;83.26;99069.11;431483;1271;142827;-60
2022/08/20 22:31:25;;;;;;;12.50;10.20;;;;;;;20.36;83.48;99064.19;431239;1271;129151;-62
2022/08/20 22:41:31;;;;;;;13.00;10.50;;;;;;;20.25;83.42;99056.41;430930;1271;143102;-61
2022/08/20 22:51:40;;;;;;;12.40;10.70;;;;;;;20.09;83.21;99036.73;431372;1271;145387;-61
2022/08/20 23:01:46;;;;;;;10.50;9.40;;;;;;;19.97;83.05;99020.75;430658;1271;141853;-60
2022/08/20 23:11:53;;;;;;;92.80;85.00;;;;;;;19.90;83.11;99022.02;431762;1271;142553;-60
2022/08/20 23:21:59;;;;;;;18.90;12.70;;;;;;;19.81;83.19;99020.44;430990;1271;143175;-60
2022/08/20 23:32:05;;;;;;;9.50;7.40;;;;;;;19.63;83.22;99030.98;430267;1271;142870;-60
2022/08/20 23:42:11;;;;;;;7.60;6.50;;;;;;;19.42;83.31;99028.77;430836;1272;142137;-59
2022/08/20 23:52:18;;;;;;;9.20;6.50;;;;;;;19.25;83.34;99028.47;432276;1270;142363;-62
